createdAt,value
2018-01-15T00:02:26.927Z,14.93
2018-01-15T00:04:54.476Z,14.75
2018-01-15T00:07:22.769Z,14.18
2018-01-15T00:09:50.299Z,14.55
2018-01-15T00:12:17.836Z,15.57
2018-01-15T00:14:45.392Z,13.98
2018-01-15T00:17:12.915Z,15.50
2018-01-15T00:19:41.203Z,14.87
2018-01-15T00:22:08.736Z,14.48
2018-01-15T00:24:36.262Z,17.02
2018-01-15T00:27:03.780Z,14.85
2018-01-15T00:29:31.318Z,15.57
2018-01-15T00:31:58.833Z,15.70
2018-01-15T00:34:26.358Z,15.25
2018-01-15T00:36:53.880Z,17.62
2018-01-15T00:39:22.282Z,16.42
2018-01-15T00:41:50.563Z,15.57
2018-01-15T00:44:18.058Z,15.27
2018-01-15T00:46:45.608Z,15.55
2018-01-15T00:49:13.149Z,15.82
2018-01-15T00:51:40.694Z,14.98
2018-01-15T00:54:08.237Z,15.32
2018-01-15T00:56:35.764Z,15.95
2018-01-15T00:59:03.321Z,15.23
2018-01-15T01:01:30.844Z,15.27
2018-01-15T01:03:58.375Z,15.43
2018-01-15T01:06:25.911Z,16.40
2018-01-15T01:08:54.260Z,15.30
2018-01-15T01:11:21.782Z,15.85
2018-01-15T01:13:49.327Z,16.35
2018-01-15T01:16:16.861Z,16.23
2018-01-15T01:18:45.162Z,16.08
2018-01-15T01:21:12.678Z,16.60
2018-01-15T01:23:40.196Z,16.98
2018-01-15T01:26:07.729Z,16.15
2018-01-15T01:28:35.254Z,16.83
2018-01-15T01:31:02.793Z,15.25
2018-01-15T01:33:30.311Z,16.70
2018-01-15T01:35:57.872Z,16.25
2018-01-15T01:38:25.399Z,16.58
2018-01-15T01:40:52.912Z,15.88
2018-01-15T01:43:20.463Z,16.90
2018-01-15T01:45:48.020Z,17.45
2018-01-15T01:48:15.560Z,16.98
2018-01-15T01:50:43.087Z,17.35
2018-01-15T01:53:10.624Z,17.27
2018-01-15T01:55:38.143Z,18.00
2018-01-15T01:58:05.677Z,17.73
2018-01-15T02:00:33.943Z,17.67
2018-01-15T02:03:01.468Z,17.87
2018-01-15T02:05:28.988Z,17.27
2018-01-15T02:07:56.533Z,17.02
2018-01-15T02:10:24.821Z,18.52
2018-01-15T02:12:52.372Z,18.65
2018-01-15T02:15:19.879Z,18.10
2018-01-15T02:17:47.388Z,18.62
2018-01-15T02:20:15.685Z,18.10
2018-01-15T02:22:43.197Z,17.90
2018-01-15T02:25:10.733Z,17.67
2018-01-15T02:27:38.271Z,19.08
2018-01-15T02:30:05.792Z,17.23
2018-01-15T02:32:34.100Z,18.00
2018-01-15T02:35:01.639Z,19.33
2018-01-15T02:37:29.967Z,17.52
2018-01-15T02:39:57.502Z,16.83
2018-01-15T02:42:25.054Z,18.50
2018-01-15T02:44:52.591Z,18.67
2018-01-15T02:47:20.119Z,18.55
2018-01-15T02:49:47.655Z,18.75
2018-01-15T02:52:15.157Z,18.42
2018-01-15T02:54:43.460Z,18.52
2018-01-15T02:57:10.985Z,18.62
2018-01-15T02:59:38.519Z,18.65
2018-01-15T03:02:06.056Z,18.50
2018-01-15T03:04:33.585Z,18.70
2018-01-15T03:07:01.115Z,18.10
2018-01-15T03:09:28.643Z,19.12
2018-01-15T03:11:56.195Z,18.58
2018-01-15T03:14:23.703Z,19.30
2018-01-15T03:16:52.008Z,18.62
2018-01-15T03:19:19.531Z,19.05
2018-01-15T03:21:47.830Z,19.05
2018-01-15T03:24:15.363Z,18.42
2018-01-15T03:26:42.875Z,17.52
2018-01-15T03:29:10.422Z,18.02
2018-01-15T03:31:37.955Z,18.73
2018-01-15T03:34:06.245Z,18.17
2018-01-15T03:36:33.783Z,17.87
2018-01-15T03:39:02.055Z,18.23
2018-01-15T03:41:29.607Z,18.60
2018-01-15T03:43:57.140Z,18.17
2018-01-15T03:46:24.677Z,18.52
2018-01-15T03:48:52.196Z,19.60
2018-01-15T03:51:20.480Z,19.75
2018-01-15T03:53:48.805Z,17.58
2018-01-15T03:56:16.350Z,19.45
2018-01-15T03:58:43.861Z,18.95
2018-01-15T04:01:12.145Z,19.98
2018-01-15T04:03:40.459Z,19.80
2018-01-15T04:06:07.980Z,19.30
2018-01-15T04:08:36.292Z,19.08
2018-01-15T04:11:03.861Z,20.05
2018-01-15T04:13:31.369Z,19.55
2018-01-15T04:15:58.876Z,18.58
2018-01-15T04:18:26.427Z,19.15
2018-01-15T04:20:53.923Z,19.58
2018-01-15T04:23:21.453Z,20.20
2018-01-15T04:25:48.952Z,19.92
2018-01-15T04:28:16.487Z,19.45
2018-01-15T04:30:43.993Z,20.05
2018-01-15T04:33:12.293Z,19.95
2018-01-15T04:35:39.824Z,19.98
2018-01-15T04:38:07.330Z,20.05
2018-01-15T04:40:34.880Z,20.75
2018-01-15T04:43:03.164Z,19.70
2018-01-15T04:45:30.672Z,20.67
2018-01-15T04:47:58.968Z,20.27
2018-01-15T04:50:26.511Z,20.15
2018-01-15T04:52:54.783Z,20.27
2018-01-15T04:55:23.085Z,19.67
2018-01-15T04:57:50.955Z,18.62
2018-01-15T05:00:18.488Z,20.90
2018-01-15T05:02:46.080Z,20.10
2018-01-15T05:05:13.603Z,19.70
2018-01-15T05:07:41.898Z,20.00
2018-01-15T05:10:09.439Z,21.35
2018-01-15T05:12:37.713Z,19.30
2018-01-15T05:15:06.016Z,19.92
2018-01-15T05:17:33.536Z,19.67
2018-01-15T05:20:01.061Z,19.30
2018-01-15T05:22:28.608Z,20.80
2018-01-15T05:24:56.136Z,19.10
2018-01-15T05:27:23.710Z,18.77
2018-01-15T05:29:51.248Z,18.77
2018-01-15T05:32:19.539Z,19.10
2018-01-15T05:34:47.057Z,18.35
2018-01-15T05:37:14.622Z,18.37
2018-01-15T05:39:42.132Z,18.50
2018-01-15T05:42:10.409Z,18.85
2018-01-15T05:44:37.931Z,17.90
2018-01-15T05:47:06.267Z,18.77
2018-01-15T05:49:33.792Z,19.40
2018-01-15T05:52:01.294Z,18.85
2018-01-15T05:54:28.818Z,19.17
2018-01-15T05:56:57.092Z,20.17
2018-01-15T05:59:24.634Z,22.70
2018-01-15T06:01:52.180Z,19.95
2018-01-15T06:04:19.743Z,20.15
2018-01-15T06:06:48.047Z,22.45
2018-01-15T06:09:15.560Z,21.87
2018-01-15T06:11:43.123Z,22.20
2018-01-15T06:14:10.655Z,21.80
2018-01-15T06:16:38.183Z,20.42
2018-01-15T06:19:05.842Z,19.17
2018-01-15T06:21:33.974Z,21.10
2018-01-15T06:24:02.318Z,21.50
2018-01-15T06:26:29.814Z,19.30
2018-01-15T06:28:58.137Z,19.00
2018-01-15T06:31:25.661Z,21.08
2018-01-15T06:33:53.963Z,19.70
2018-01-15T06:36:21.481Z,19.33
2018-01-15T06:38:49.028Z,20.25
2018-01-15T06:41:16.541Z,20.83
2018-01-15T06:43:44.125Z,19.83
2018-01-15T06:46:11.638Z,20.92
2018-01-15T06:48:39.187Z,19.83
2018-01-15T06:51:07.456Z,19.92
2018-01-15T06:53:35.735Z,18.48
2018-01-15T06:56:04.040Z,19.77
2018-01-15T06:58:31.586Z,19.48
2018-01-15T07:00:59.130Z,18.05
2018-01-15T07:03:26.668Z,18.90
2018-01-15T07:05:54.283Z,17.95
2018-01-15T07:08:21.774Z,19.30
2018-01-15T07:10:49.311Z,19.42
2018-01-15T07:13:16.833Z,19.65
2018-01-15T07:15:44.460Z,17.98
2018-01-15T07:18:12.106Z,19.27
2018-01-15T07:20:39.656Z,20.95
2018-01-15T07:23:07.201Z,20.23
2018-01-15T07:25:34.702Z,18.40
2018-01-15T07:28:02.209Z,19.25
2018-01-15T07:30:29.769Z,19.52
2018-01-15T07:32:57.315Z,18.95
2018-01-15T07:35:24.847Z,18.25
2018-01-15T07:37:53.129Z,20.62
2018-01-15T07:40:21.403Z,18.87
2018-01-15T07:42:48.936Z,20.17
2018-01-15T07:45:16.567Z,18.75
2018-01-15T07:47:44.100Z,20.75
2018-01-15T07:50:12.415Z,23.38
2018-01-15T07:52:39.929Z,20.17
2018-01-15T07:55:08.264Z,20.85
2018-01-15T07:57:35.768Z,19.83
2018-01-15T08:00:04.081Z,20.30
2018-01-15T08:02:31.616Z,19.12
2018-01-15T08:04:59.168Z,20.83
2018-01-15T08:07:26.671Z,19.15
2018-01-15T08:09:54.216Z,18.90
2018-01-15T08:12:21.775Z,19.05
2018-01-15T08:14:49.299Z,19.92
2018-01-15T08:17:16.812Z,20.40
2018-01-15T08:19:44.349Z,20.25
2018-01-15T08:22:11.880Z,20.98
2018-01-15T08:24:39.407Z,20.52
2018-01-15T08:27:08.109Z,22.73
2018-01-15T08:29:36.375Z,23.02
2018-01-15T08:32:03.888Z,24.70
2018-01-15T08:34:31.404Z,22.62
2018-01-15T08:36:59.696Z,21.80
2018-01-15T08:39:27.248Z,21.77
2018-01-15T08:41:55.552Z,20.40
2018-01-15T08:44:23.075Z,22.30
2018-01-15T08:46:51.416Z,20.42
2018-01-15T08:49:19.668Z,22.10
2018-01-15T08:51:47.217Z,21.37
2018-01-15T08:54:14.726Z,20.75
2018-01-15T08:56:42.236Z,20.58
2018-01-15T08:59:09.760Z,20.62
2018-01-15T09:01:38.064Z,19.85
2018-01-15T09:04:05.593Z,20.10
2018-01-15T09:06:33.906Z,20.52
2018-01-15T09:09:01.411Z,21.05
2018-01-15T09:11:28.912Z,21.33
2018-01-15T09:13:56.442Z,21.05
2018-01-15T09:16:24.759Z,20.75
2018-01-15T09:18:52.271Z,20.30
2018-01-15T09:21:19.794Z,19.62
2018-01-15T09:23:47.304Z,19.83
2018-01-15T09:26:15.589Z,20.45
2018-01-15T09:28:43.120Z,20.90
2018-01-15T09:31:10.654Z,19.37
2018-01-15T09:33:38.205Z,20.02
2018-01-15T09:36:05.706Z,20.75
2018-01-15T09:38:33.999Z,20.27
2018-01-15T09:41:01.527Z,19.65
2018-01-15T09:43:29.037Z,20.23
2018-01-15T09:45:56.572Z,21.10
2018-01-15T09:48:24.102Z,20.10
2018-01-15T09:50:51.662Z,20.40
2018-01-15T09:53:19.210Z,19.87
2018-01-15T09:55:46.835Z,20.80
2018-01-15T09:58:14.362Z,21.27
2018-01-15T10:00:42.636Z,20.77
2018-01-15T10:03:10.935Z,21.30
2018-01-15T10:05:38.460Z,24.45
2018-01-15T10:08:06.773Z,22.23
2018-01-15T10:10:34.351Z,20.05
2018-01-15T10:13:01.858Z,20.52
2018-01-15T10:15:29.376Z,20.12
2018-01-15T10:17:56.908Z,20.98
2018-01-15T10:20:24.438Z,20.92
2018-01-15T10:22:52.758Z,21.70
2018-01-15T10:25:20.266Z,21.50
2018-01-15T10:27:47.819Z,20.30
2018-01-15T10:30:16.256Z,19.60
2018-01-15T10:32:43.765Z,20.60
2018-01-15T10:35:12.064Z,21.30
2018-01-15T10:37:39.569Z,21.40
2018-01-15T10:40:07.098Z,21.60
2018-01-15T10:42:34.614Z,21.77
2018-01-15T10:45:02.153Z,21.42
2018-01-15T10:47:29.657Z,21.35
2018-01-15T10:49:57.180Z,21.17
2018-01-15T10:52:24.727Z,21.37
2018-01-15T10:54:52.256Z,21.08
2018-01-15T10:57:20.532Z,21.30
2018-01-15T10:59:48.050Z,22.65
2018-01-15T11:02:16.347Z,20.70
2018-01-15T11:04:43.855Z,21.75
2018-01-15T11:07:11.432Z,22.15
2018-01-15T11:09:39.723Z,20.40
2018-01-15T11:12:08.008Z,22.17
2018-01-15T11:14:36.301Z,21.35
2018-01-15T11:17:03.808Z,20.58
2018-01-15T11:19:31.340Z,20.92
2018-01-15T11:21:58.862Z,21.60
2018-01-15T11:24:26.358Z,21.90
2018-01-15T11:26:53.886Z,21.42
2018-01-15T11:29:21.390Z,21.25
2018-01-15T11:31:48.945Z,21.37
2018-01-15T11:34:16.500Z,21.58
2018-01-15T11:36:44.048Z,21.20
2018-01-15T11:39:11.540Z,20.58
2018-01-15T11:41:39.846Z,20.90
2018-01-15T11:44:07.411Z,21.67
2018-01-15T11:46:34.956Z,22.27
2018-01-15T11:49:03.262Z,21.70
2018-01-15T11:51:30.809Z,21.55
2018-01-15T11:53:58.350Z,22.65
2018-01-15T11:56:26.625Z,23.70
2018-01-15T11:58:54.203Z,22.00
2018-01-15T12:01:21.726Z,21.05
2018-01-15T12:03:49.272Z,21.77
2018-01-15T12:06:16.802Z,21.87
2018-01-15T12:08:44.315Z,23.25
2018-01-15T12:11:12.646Z,22.80
2018-01-15T12:13:40.172Z,23.17
2018-01-15T12:16:07.719Z,21.95
2018-01-15T12:18:36.036Z,21.90
2018-01-15T12:21:03.606Z,21.80
2018-01-15T12:23:31.139Z,21.58
2018-01-15T12:25:58.668Z,22.30
2018-01-15T12:28:26.940Z,22.52
2018-01-15T12:30:55.262Z,21.15
2018-01-15T12:33:22.791Z,21.15
2018-01-15T12:35:50.339Z,20.35
2018-01-15T12:38:18.804Z,21.10
2018-01-15T12:40:46.303Z,21.02
2018-01-15T12:43:13.843Z,20.30
2018-01-15T12:45:41.367Z,20.90
2018-01-15T12:48:08.900Z,20.17
2018-01-15T12:50:36.409Z,20.02
2018-01-15T12:53:04.730Z,19.62
2018-01-15T12:55:32.234Z,19.95
2018-01-15T12:58:00.512Z,20.23
2018-01-15T13:00:28.051Z,20.65
2018-01-15T13:02:55.577Z,21.20
2018-01-15T13:05:35.816Z,20.20
2018-01-15T13:11:06.070Z,18.90
2018-01-15T13:13:33.592Z,32.15
2018-01-15T13:16:01.867Z,21.85
2018-01-15T13:18:30.152Z,23.12
2018-01-15T13:20:57.695Z,28.23
2018-01-15T13:23:25.235Z,22.83
2018-01-15T13:25:52.760Z,19.65
2018-01-15T13:28:20.316Z,20.02
2018-01-15T13:30:47.816Z,30.70
2018-01-15T13:33:15.390Z,21.17
2018-01-15T13:35:42.932Z,20.60
2018-01-15T13:38:10.523Z,19.12
2018-01-15T13:40:38.824Z,18.42
2018-01-15T13:43:06.351Z,18.67
2018-01-15T13:45:34.646Z,17.80
2018-01-15T13:48:02.177Z,18.95
2018-01-15T13:50:29.708Z,18.95
2018-01-15T13:52:57.234Z,20.30
2018-01-15T13:55:24.779Z,18.73
2018-01-15T13:57:52.290Z,21.27
2018-01-15T14:00:19.842Z,18.77
2018-01-15T14:02:47.365Z,18.98
2018-01-15T14:05:14.884Z,19.25
2018-01-15T14:07:42.418Z,18.08
2018-01-15T14:10:09.988Z,18.15
2018-01-15T14:12:37.548Z,17.05
2018-01-15T14:15:05.048Z,17.83
2018-01-15T14:17:32.583Z,17.90
2018-01-15T14:20:00.105Z,18.10
2018-01-15T14:22:27.656Z,16.95
2018-01-15T14:24:55.187Z,17.10
2018-01-15T14:27:22.706Z,16.73
2018-01-15T14:29:50.261Z,16.67
2018-01-15T14:32:17.923Z,17.05
2018-01-15T14:34:46.150Z,16.12
2018-01-15T14:37:14.451Z,16.62
2018-01-15T14:39:41.968Z,15.30
2018-01-15T14:42:09.499Z,16.45
2018-01-15T14:44:37.019Z,14.75
2018-01-15T14:47:05.061Z,15.82
2018-01-15T14:49:32.641Z,16.50
2018-01-15T14:52:00.915Z,17.77
2018-01-15T14:54:29.193Z,17.05
2018-01-15T14:56:56.733Z,17.15
2018-01-15T14:59:24.229Z,17.20
2018-01-15T15:01:51.744Z,17.77
2018-01-15T15:04:20.065Z,18.67
2018-01-15T15:06:47.592Z,18.12
2018-01-15T15:09:15.128Z,18.35
2018-01-15T15:11:43.404Z,19.27
2018-01-15T15:14:10.940Z,18.05
2018-01-15T15:16:39.782Z,19.20
2018-01-15T15:19:07.283Z,18.52
2018-01-15T15:21:34.823Z,18.20
2018-01-15T15:24:02.371Z,16.70
2018-01-15T15:26:29.891Z,18.92
2018-01-15T15:28:58.193Z,17.85
2018-01-15T15:31:25.717Z,18.40
2018-01-15T15:33:54.033Z,19.08
2018-01-15T15:36:21.565Z,17.55
2018-01-15T15:38:49.460Z,17.35
2018-01-15T15:41:17.031Z,18.70
2018-01-15T15:43:44.552Z,23.15
2018-01-15T15:46:12.849Z,22.42
2018-01-15T15:48:40.375Z,23.50
2018-01-15T15:51:08.683Z,21.70
2018-01-15T15:53:36.215Z,20.20
2018-01-15T15:56:04.888Z,20.27
2018-01-15T15:58:33.684Z,19.92
2018-01-15T16:01:02.029Z,20.60
2018-01-15T16:03:29.567Z,22.77
2018-01-15T16:05:57.648Z,23.75
2018-01-15T16:08:25.281Z,25.98
2018-01-15T16:10:52.874Z,25.20
2018-01-15T16:13:20.702Z,25.85
2018-01-15T16:15:48.353Z,26.17
2018-01-15T16:18:15.888Z,23.27
2018-01-15T16:20:44.418Z,23.00
2018-01-15T16:23:11.965Z,22.25
2018-01-15T16:25:39.491Z,21.52
2018-01-15T16:28:07.930Z,28.38
2018-01-15T16:30:35.527Z,23.30
2018-01-15T16:33:03.312Z,21.55
2018-01-15T16:35:31.615Z,20.62
2018-01-15T16:37:59.179Z,19.83
2018-01-15T16:40:26.717Z,17.37
2018-01-15T16:42:54.254Z,13.23
2018-01-15T16:45:22.566Z,10.82
2018-01-15T16:47:50.072Z,10.95
2018-01-15T16:50:23.372Z,9.85
2018-01-15T16:52:50.886Z,8.25
2018-01-15T16:55:18.429Z,7.72
2018-01-15T16:57:45.970Z,7.95
2018-01-15T17:00:13.495Z,8.20
2018-01-15T17:02:40.996Z,8.50
2018-01-15T17:05:08.529Z,8.05
2018-01-15T17:07:36.849Z,8.18
2018-01-15T17:10:04.374Z,9.05
2018-01-15T17:12:32.646Z,8.63
2018-01-15T17:15:00.181Z,8.40
2018-01-15T17:17:27.733Z,10.45
2018-01-15T17:19:55.295Z,11.70
2018-01-15T17:22:22.825Z,10.52
2018-01-15T17:24:50.394Z,10.27
2018-01-15T17:27:17.950Z,9.48
2018-01-15T17:29:45.486Z,7.68
2018-01-15T17:32:13.030Z,8.45
2018-01-15T17:34:40.560Z,7.85
2018-01-15T17:37:08.094Z,8.05
2018-01-15T17:39:35.641Z,7.50
2018-01-15T17:42:03.148Z,6.35
2018-01-15T17:44:31.494Z,7.85
2018-01-15T17:46:59.013Z,6.90
2018-01-15T17:49:26.574Z,7.75
2018-01-15T17:51:54.851Z,6.30
2018-01-15T17:54:22.394Z,8.00
2018-01-15T17:56:50.043Z,8.98
2018-01-15T17:59:18.323Z,8.75
2018-01-15T18:01:46.606Z,7.47
2018-01-15T18:04:14.151Z,7.55
2018-01-15T18:06:41.710Z,11.75
2018-01-15T18:09:09.220Z,7.00
2018-01-15T18:11:36.791Z,7.85
2018-01-15T18:14:04.331Z,10.68
2018-01-15T18:16:31.868Z,12.30
2018-01-15T18:18:59.399Z,9.80
2018-01-15T18:21:26.952Z,8.52
2018-01-15T18:23:54.488Z,9.07
2018-01-15T18:26:22.029Z,9.70
2018-01-15T18:28:49.585Z,9.38
2018-01-15T18:31:17.116Z,9.05
2018-01-15T18:33:45.405Z,14.25
2018-01-15T18:36:12.957Z,26.30
2018-01-15T18:38:40.505Z,14.85
2018-01-15T18:41:08.061Z,11.70
2018-01-15T18:43:36.445Z,9.82
2018-01-15T18:46:03.915Z,11.60
2018-01-15T18:48:31.409Z,13.27
2018-01-15T18:50:58.954Z,12.55
2018-01-15T18:53:26.519Z,11.07
2018-01-15T18:55:54.019Z,11.70
2018-01-15T18:58:21.644Z,10.98
2018-01-15T19:00:49.207Z,13.77
2018-01-15T19:03:16.709Z,11.95
2018-01-15T19:05:45.130Z,11.10
2018-01-15T19:08:13.075Z,11.23
2018-01-15T19:10:40.656Z,11.10
2018-01-15T19:13:09.284Z,11.50
2018-01-15T19:15:37.514Z,10.60
2018-01-15T19:18:05.164Z,10.25
2018-01-15T19:20:32.694Z,9.98
2018-01-15T19:23:00.280Z,10.10
2018-01-15T19:25:28.095Z,10.55
2018-01-15T19:27:56.182Z,8.20
2018-01-15T19:30:23.838Z,8.50
2018-01-15T19:32:51.350Z,8.90
2018-01-15T19:35:19.072Z,8.68
2018-01-15T19:37:48.596Z,7.75
2018-01-15T19:40:17.677Z,8.15
2018-01-15T19:42:46.626Z,6.20
2018-01-15T19:45:19.934Z,6.30
2018-01-15T19:47:53.177Z,5.85
2018-01-15T19:50:26.676Z,6.40
2018-01-15T19:52:59.937Z,6.55
2018-01-15T19:55:34.065Z,6.43
2018-01-15T19:58:07.542Z,5.50
2018-01-15T20:00:41.744Z,6.60
2018-01-15T20:03:15.505Z,4.80
2018-01-15T20:05:48.810Z,4.87
2018-01-15T20:08:21.879Z,4.78
2018-01-15T20:10:50.676Z,3.65
2018-01-15T20:13:18.865Z,3.42
2018-01-15T20:15:47.246Z,2.83
2018-01-15T20:18:15.453Z,2.72
2018-01-15T20:20:43.065Z,2.67
2018-01-15T20:23:10.584Z,2.00
2018-01-15T20:25:38.598Z,3.42
2018-01-15T20:28:07.541Z,2.50
2018-01-15T20:30:35.248Z,2.53
2018-01-15T20:33:02.809Z,2.15
2018-01-15T20:35:30.362Z,2.70
2018-01-15T20:37:58.328Z,5.53
2018-01-15T20:40:26.367Z,2.20
2018-01-15T20:42:53.953Z,3.05
2018-01-15T20:45:22.264Z,2.20
2018-01-15T20:47:49.874Z,3.17
2018-01-15T20:50:17.822Z,2.37
2018-01-15T20:52:45.369Z,2.45
2018-01-15T20:55:12.877Z,2.70
2018-01-15T20:57:41.167Z,3.25
2018-01-15T21:00:09.366Z,3.12
2018-01-15T21:02:37.217Z,3.05
2018-01-15T21:05:04.796Z,3.35
2018-01-15T21:07:32.296Z,2.90
2018-01-15T21:10:00.795Z,3.30
2018-01-15T21:12:28.842Z,3.20
2018-01-15T21:14:56.450Z,3.10
2018-01-15T21:17:23.959Z,3.37
2018-01-15T21:19:52.280Z,3.30
2018-01-15T21:22:19.828Z,2.67
2018-01-15T21:24:47.349Z,2.85
2018-01-15T21:27:14.975Z,2.95
2018-01-15T21:29:42.487Z,3.05
2018-01-15T21:32:11.655Z,3.05
2018-01-15T21:34:40.104Z,3.08
2018-01-15T21:37:07.630Z,3.00
2018-01-15T21:39:35.181Z,2.53
2018-01-15T21:42:03.501Z,3.22
2018-01-15T21:44:31.008Z,2.55
2018-01-15T21:46:59.300Z,3.00
2018-01-15T21:49:27.615Z,2.90
2018-01-15T21:51:55.136Z,2.78
2018-01-15T21:54:22.696Z,2.50
2018-01-15T21:56:50.209Z,2.50
2018-01-15T21:59:17.730Z,2.65
2018-01-15T22:01:45.275Z,3.22
2018-01-15T22:04:12.775Z,3.40
2018-01-15T22:06:40.272Z,2.60
2018-01-15T22:09:08.571Z,2.35
2018-01-15T22:11:36.072Z,2.10
2018-01-15T22:14:03.585Z,2.40
2018-01-15T22:16:31.094Z,2.30
2018-01-15T22:18:58.614Z,3.10
2018-01-15T22:21:26.129Z,2.30
2018-01-15T22:23:53.643Z,2.25
2018-01-15T22:26:21.178Z,2.10
2018-01-15T22:28:48.716Z,1.95
2018-01-15T22:31:16.989Z,2.20
2018-01-15T22:33:45.292Z,2.28
2018-01-15T22:36:12.818Z,2.95
2018-01-15T22:38:40.333Z,2.65
2018-01-15T22:41:07.867Z,2.10
2018-01-15T22:43:35.410Z,1.92
2018-01-15T22:46:03.698Z,1.90
2018-01-15T22:48:31.214Z,1.80
2018-01-15T22:50:58.740Z,2.17
2018-01-15T22:53:26.259Z,1.55
2018-01-15T22:55:53.756Z,2.45
2018-01-15T22:58:21.301Z,2.10
2018-01-15T23:00:48.840Z,2.17
2018-01-15T23:03:17.161Z,2.30
2018-01-15T23:05:44.693Z,2.30
2018-01-15T23:08:12.200Z,2.40
2018-01-15T23:10:39.731Z,2.42
2018-01-15T23:13:07.256Z,2.20
2018-01-15T23:15:35.554Z,1.50
2018-01-15T23:18:03.072Z,1.87
2018-01-15T23:20:30.578Z,1.80
2018-01-15T23:22:58.104Z,1.83
2018-01-15T23:25:25.628Z,1.50
2018-01-15T23:27:53.162Z,1.80
2018-01-15T23:30:20.721Z,1.40
2018-01-15T23:32:48.247Z,2.00
2018-01-15T23:35:15.753Z,2.00
2018-01-15T23:37:43.298Z,1.70
2018-01-15T23:40:10.803Z,1.80
2018-01-15T23:42:39.071Z,1.60
2018-01-15T23:45:06.627Z,1.98
2018-01-15T23:47:34.135Z,1.48
2018-01-15T23:50:01.653Z,1.25
2018-01-15T23:52:29.955Z,1.75
2018-01-15T23:54:57.480Z,1.95
2018-01-15T23:57:24.994Z,1.55
2018-01-15T23:59:52.513Z,1.37
